Time;durP1;ratioP1;P1;durP2;ratioP2;P2;SDS_P1;SDS_P2;PMS_P1;PMS_P2;Temp;Humidity;BMP_temperature;BMP_pressure;BME280_temperature;BME280_humidity;BME280_pressure;Samples;Min_cycle;Max_cycle;Signal;HPM_P1;HPM_P2
2022/11/29 00:00:05;;;;;;;27.55;15.95;;;;;;;2.79;95.10;98133.72;10249539;28;20551;-57
2022/11/29 00:05:05;;;;;;;24.90;14.52;;;;;;;2.48;95.00;98129.19;10249793;28;20058;-56
2022/11/29 00:10:04;;;;;;;29.60;17.55;;;;;;;2.27;95.96;98134.41;10250558;28;20066;-56
2022/11/29 00:15:04;;;;;;;38.35;21.80;;;;;;;2.12;96.53;98134.69;10250012;28;20080;-56
2022/11/29 00:20:03;;;;;;;44.17;22.20;;;;;;;2.04;97.02;98131.81;10249473;28;20054;-56
2022/11/29 00:25:04;;;;;;;39.72;20.45;;;;;;;1.92;97.33;98139.03;10249437;28;20520;-56
2022/11/29 00:30:04;;;;;;;40.80;21.27;;;;;;;1.78;97.70;98129.94;10264517;28;20058;-56
2022/11/29 00:35:03;;;;;;;40.50;21.50;;;;;;;1.70;98.76;98135.63;10249842;28;20096;-56
2022/11/29 00:40:03;;;;;;;;;;;;;;;1.64;98.98;98149.84;10249502;28;20057;-56
2022/11/29 00:45:02;;;;;;;36.40;19.03;;;;;;;1.59;98.71;98147.13;10249486;28;19949;-56
2022/11/29 00:50:01;;;;;;;38.92;19.10;;;;;;;1.61;99.20;98145.50;10249040;28;20054;-56
2022/11/29 00:55:00;;;;;;;38.53;20.33;;;;;;;1.63;99.33;98143.00;10250793;28;20448;-56
2022/11/29 00:59:59;;;;;;;33.67;18.20;;;;;;;1.64;99.50;98140.50;10256057;28;20046;-56
2022/11/29 01:04:58;;;;;;;41.25;20.30;;;;;;;1.67;99.22;98142.28;10256026;28;20053;-56
2022/11/29 01:09:57;;;;;;;36.95;18.80;;;;;;;1.66;99.87;98138.88;10255885;28;20034;-56
2022/11/29 01:14:57;;;;;;;49.90;25.90;;;;;;;1.69;99.53;98139.03;10255958;28;20496;-57
2022/11/29 01:19:56;;;;;;;58.35;28.00;;;;;;;1.60;99.98;98141.22;10255193;28;20066;-57
2022/11/29 01:24:55;;;;;;;40.88;20.40;;;;;;;1.61;99.86;98130.16;10255292;28;20030;-57
2022/11/29 01:29:54;;;;;;;50.38;24.10;;;;;;;1.56;100.00;98131.66;10256015;28;20391;-57
2022/11/29 01:34:53;;;;;;;41.95;21.17;;;;;;;1.68;99.58;98119.34;10255697;28;20061;-57
2022/11/29 01:39:52;;;;;;;42.53;21.10;;;;;;;1.64;100.00;98127.69;10254400;28;20069;-57
2022/11/29 01:44:59;;;;;;;48.58;22.17;;;;;;;1.73;100.00;98129.75;10255237;28;20034;-56
2022/11/29 01:49:58;;;;;;;56.45;27.73;;;;;;;1.63;100.00;98128.53;10254306;28;20073;-57
2022/11/29 01:55:02;;;;;;;47.25;22.48;;;;;;;1.68;100.00;98121.91;10253811;28;20064;-57
2022/11/29 02:00:07;;;;;;;51.60;24.17;;;;;;;1.61;100.00;98108.81;10253878;28;20058;-57
2022/11/29 02:05:07;;;;;;;44.03;20.33;;;;;;;1.50;100.00;98106.69;10253648;28;20082;-56
2022/11/29 02:10:06;;;;;;;45.13;19.80;;;;;;;1.21;100.00;98105.50;10252568;28;20070;-56
2022/11/29 02:15:20;;;;;;;42.42;19.08;;;;;;;1.13;100.00;98106.91;10253248;28;20374;-56
2022/11/29 02:20:41;;;;;;;43.13;18.85;;;;;;;1.24;100.00;98113.31;10253238;28;20073;-58
2022/11/29 02:26:08;;;;;;;46.28;20.67;;;;;;;1.13;100.00;98109.44;10253176;28;20157;-56
2022/11/29 02:31:22;;;;;;;40.10;16.88;;;;;;;1.00;100.00;98109.75;10252922;28;20054;-57
2022/11/29 02:36:40;;;;;;;38.45;16.83;;;;;;;1.12;100.00;98117.91;10252895;28;20456;-57
2022/11/29 02:41:57;;;;;;;43.20;18.25;;;;;;;1.21;100.00;98115.75;10252228;28;20075;-57
2022/11/29 02:47:02;;;;;;;41.65;18.77;;;;;;;1.13;100.00;98093.22;10252354;28;20072;-56
2022/11/29 02:52:06;;;;;;;43.75;18.45;;;;;;;1.30;100.00;98118.69;10252207;28;20070;-56
2022/11/29 02:57:32;;;;;;;38.25;17.17;;;;;;;1.27;100.00;98112.56;10252036;28;20467;-56
2022/11/29 03:03:02;;;;;;;37.92;19.08;;;;;;;1.18;100.00;98115.63;10251553;28;20078;-56
2022/11/29 03:08:13;;;;;;;40.25;20.80;;;;;;;1.11;100.00;98118.72;10252629;28;20436;-56
2022/11/29 03:13:22;;;;;;;33.83;15.52;;;;;;;1.10;100.00;98119.53;10266328;28;20062;-56
2022/11/29 03:18:37;;;;;;;27.75;14.27;;;;;;;1.10;100.00;98124.63;10250677;28;20077;-56
2022/11/29 03:23:42;;;;;;;28.50;13.65;;;;;;;1.13;100.00;98129.91;10250906;28;20061;-56
2022/11/29 03:28:43;;;;;;;33.85;15.95;;;;;;;1.27;100.00;98122.78;10251311;28;20594;-56
2022/11/29 03:34:16;;;;;;;26.90;13.32;;;;;;;1.31;100.00;98135.75;10250779;28;20076;-56
2022/11/29 03:39:27;;;;;;;25.08;11.68;;;;;;;1.02;100.00;98136.22;10250270;28;20496;-56
2022/11/29 03:44:42;;;;;;;27.33;11.88;;;;;;;0.96;100.00;98134.28;10250175;28;20065;-56
2022/11/29 03:49:53;;;;;;;26.33;13.52;;;;;;;0.87;100.00;98142.44;10250368;28;20504;-56
2022/11/29 03:55:10;;;;;;;26.67;12.55;;;;;;;0.90;100.00;98137.44;10250008;28;20069;-56
2022/11/29 04:00:11;;;;;;;27.90;14.13;;;;;;;0.98;100.00;98131.78;10249892;28;20064;-57
2022/11/29 04:05:25;;;;;;;26.63;13.88;;;;;;;1.07;100.00;98135.59;10250169;28;20128;-56
2022/11/29 04:10:36;;;;;;;25.08;12.50;;;;;;;1.18;100.00;98143.75;10250022;28;20073;-56
2022/11/29 04:16:07;;;;;;;25.73;13.15;;;;;;;1.39;100.00;98142.88;10250177;28;20069;-56
2022/11/29 04:21:30;;;;;;;24.02;11.95;;;;;;;1.38;100.00;98151.34;10250014;28;20516;-56
2022/11/29 04:27:03;;;;;;;30.48;17.27;;;;;;;1.46;100.00;98157.69;10249273;28;20085;-56
2022/11/29 04:32:21;;;;;;;22.40;11.27;;;;;;;1.39;100.00;98151.44;10254431;28;20054;-56
2022/11/29 04:37:51;;;;;;;24.17;12.43;;;;;;;1.31;100.00;98156.19;10257509;28;20077;-56
2022/11/29 04:43:08;;;;;;;40.40;21.15;;;;;;;1.21;100.00;98156.63;10257242;28;20062;-56
2022/11/29 04:48:34;;;;;;;35.95;22.17;;;;;;;0.98;100.00;98155.66;10257332;28;20146;-56
2022/11/29 04:53:47;;;;;;;31.40;18.38;;;;;;;0.76;100.00;98156.41;10256891;28;20445;-57
2022/11/29 04:58:57;;;;;;;25.88;13.48;;;;;;;0.71;100.00;98145.13;10256526;28;20530;-57
2022/11/29 05:04:15;;;;;;;23.95;12.93;;;;;;;0.69;100.00;98164.63;10255807;28;20077;-57
2022/11/29 05:09:25;;;;;;;42.42;24.27;;;;;;;0.72;100.00;98163.88;10256194;28;20473;-56
2022/11/29 05:14:48;;;;;;;50.53;29.70;;;;;;;0.71;100.00;98157.91;10252617;28;20050;-56
2022/11/29 05:20:46;;;;;;;30.60;17.50;;;;;;;0.76;100.00;98171.75;10243039;28;20547;-56
2022/11/29 05:25:58;;;;;;;19.25;10.52;;;;;;;0.48;100.00;98180.72;10072165;29;20123;-56
2022/11/29 05:31:25;;;;;;;19.33;11.30;;;;;;;0.40;100.00;98182.03;10224209;28;20510;-57
2022/11/29 05:36:47;;;;;;;30.70;16.95;;;;;;;0.47;100.00;98181.53;10255424;28;20574;-57
2022/11/29 05:42:14;;;;;;;51.63;28.25;;;;;;;0.65;100.00;98180.59;10253616;28;20070;-56
2022/11/29 05:47:20;;;;;;;28.23;16.83;;;;;;;0.48;100.00;98185.84;10254818;28;20050;-56
2022/11/29 05:52:23;;;;;;;29.52;15.75;;;;;;;0.65;100.00;98183.16;10235408;28;20508;-56
2022/11/29 05:57:36;;;;;;;30.00;17.90;;;;;;;0.56;100.00;98182.75;10248721;28;20065;-57
2022/11/29 06:02:44;;;;;;;36.70;21.50;;;;;;;0.59;100.00;98182.88;10247845;28;20070;-56
2022/11/29 06:07:53;;;;;;;52.13;28.52;;;;;;;0.70;100.00;98186.78;10253318;28;20077;-56
2022/11/29 06:13:16;;;;;;;38.13;23.50;;;;;;;0.55;100.00;98189.53;10234642;28;20068;-56
2022/11/29 06:18:18;;;;;;;30.20;18.35;;;;;;;0.60;100.00;98184.66;10245804;28;20078;-57
2022/11/29 06:23:56;;;;;;;33.80;19.40;;;;;;;0.63;100.00;98188.19;10239627;28;20453;-57
2022/11/29 06:28:56;;;;;;;43.08;26.40;;;;;;;0.73;100.00;98184.34;10246189;28;20113;-57
2022/11/29 06:34:30;;;;;;;34.35;20.83;;;;;;;0.82;100.00;98182.22;10243515;28;20175;-57
2022/11/29 06:39:29;;;;;;;56.90;29.83;;;;;;;0.88;100.00;98190.16;10236906;28;20086;-57
2022/11/29 06:44:28;;;;;;;30.63;16.33;;;;;;;0.95;100.00;98193.00;10236567;28;20503;-57
2022/11/29 06:49:33;;;;;;;37.92;20.92;;;;;;;0.86;100.00;98196.88;10239855;28;20062;-57
2022/11/29 06:55:00;;;;;;;42.42;21.10;;;;;;;0.89;100.00;98191.03;10240816;28;20058;-57
2022/11/29 07:00:21;;;;;;;38.70;20.25;;;;;;;0.89;100.00;98185.91;10246840;28;20073;-57
2022/11/29 07:05:26;;;;;;;42.17;22.13;;;;;;;0.76;100.00;98189.63;10250799;28;20140;-57
2022/11/29 07:10:26;;;;;;;54.78;28.83;;;;;;;0.81;100.00;98192.38;10251348;28;20083;-57
2022/11/29 07:15:27;;;;;;;38.78;22.25;;;;;;;0.81;100.00;98190.69;10239501;28;20066;-56
2022/11/29 07:20:38;;;;;;;41.13;24.27;;;;;;;0.81;100.00;98192.38;10248840;28;20081;-56
2022/11/29 07:26:16;;;;;;;47.03;26.25;;;;;;;0.97;100.00;98196.50;10248396;28;20065;-57
2022/11/29 07:31:43;;;;;;;46.47;26.02;;;;;;;1.01;100.00;98201.78;10240667;28;20085;-57
2022/11/29 07:37:08;;;;;;;32.10;19.30;;;;;;;1.15;100.00;98202.38;10210674;28;20070;-55
2022/11/29 07:42:31;;;;;;;31.38;18.65;;;;;;;1.03;100.00;98199.31;10220811;28;20500;-55
2022/11/29 07:47:30;;;;;;;34.00;22.63;;;;;;;1.15;100.00;98199.81;10250444;28;20066;-57
2022/11/29 07:52:29;;;;;;;34.92;18.98;;;;;;;1.14;100.00;98210.88;10250458;28;20041;-57
2022/11/29 07:57:28;;;;;;;28.58;16.13;;;;;;;1.09;100.00;98203.00;10250185;28;20042;-57
2022/11/29 08:02:28;;;;;;;26.10;18.77;;;;;;;1.14;100.00;98205.75;10249869;28;20065;-57
2022/11/29 08:07:27;;;;;;;23.10;13.82;;;;;;;1.19;100.00;98206.81;10257786;28;20077;-56
2022/11/29 08:12:26;;;;;;;35.42;22.35;;;;;;;1.27;100.00;98200.38;10258132;28;20034;-57
2022/11/29 08:17:25;;;;;;;21.65;13.25;;;;;;;1.05;100.00;98203.66;10258179;28;20077;-57
2022/11/29 08:22:24;;;;;;;24.95;12.98;;;;;;;1.10;100.00;98211.53;10258127;28;20085;-57
2022/11/29 08:27:23;;;;;;;25.65;14.38;;;;;;;1.09;100.00;98205.56;10257819;28;20041;-57
2022/11/29 08:32:22;;;;;;;16.70;9.77;;;;;;;1.08;100.00;98202.91;10256994;28;20026;-57
2022/11/29 08:37:21;;;;;;;48.05;18.67;;;;;;;1.11;100.00;98198.84;10257491;28;20073;-57
2022/11/29 08:42:20;;;;;;;22.23;13.15;;;;;;;1.25;100.00;98196.88;10257421;28;20038;-57
2022/11/29 08:47:34;;;;;;;20.95;11.65;;;;;;;1.46;100.00;98190.94;10257308;28;20523;-58
2022/11/29 08:58:00;;;;;;;17.35;10.07;;;;;;;1.42;100.00;98189.91;10256570;28;20496;-56
2022/11/29 09:03:58;;;;;;;15.93;8.98;;;;;;;1.43;100.00;98189.09;10254881;28;20082;-58
2022/11/29 09:08:19;;;;;;;29.90;13.82;;;;;;;1.45;100.00;98194.28;10256734;28;20053;-57
2022/11/29 09:13:18;;;;;;;13.00;7.22;;;;;;;1.48;100.00;98184.16;10257240;28;20046;-57
2022/11/29 09:18:17;;;;;;;14.77;9.10;;;;;;;1.39;100.00;98183.78;10255951;28;20042;-57
2022/11/29 09:23:16;;;;;;;31.30;20.52;;;;;;;1.33;100.00;98179.28;10257135;28;20070;-57
2022/11/29 09:28:15;;;;;;;15.18;10.63;;;;;;;1.31;100.00;98176.66;10253051;28;20056;-57
2022/11/29 09:33:15;;;;;;;14.70;8.43;;;;;;;1.37;100.00;98185.41;10252380;28;20021;-57
2022/11/29 09:38:14;;;;;;;;;;;;;;;1.39;100.00;98174.44;10242827;28;20081;-57
2022/11/29 09:43:34;;;;;;;10.40;6.20;;;;;;;1.52;100.00;98170.69;10251760;28;19968;-55
2022/11/29 09:49:16;;;;;;;20.08;10.77;;;;;;;1.52;100.00;98169.00;10248307;28;20060;-55
2022/11/29 09:54:36;;;;;;;23.48;12.00;;;;;;;1.49;100.00;98153.53;10246082;28;20089;-56
2022/11/29 09:59:45;;;;;;;14.95;9.02;;;;;;;1.52;100.00;98151.09;10253609;28;20815;-56
2022/11/29 10:04:53;;;;;;;15.10;8.88;;;;;;;1.45;100.00;98153.34;10252616;28;20078;-56
2022/11/29 10:10:00;;;;;;;21.73;12.98;;;;;;;1.43;100.00;98152.41;10253006;28;20054;-57
2022/11/29 10:15:20;;;;;;;17.48;12.00;;;;;;;1.45;100.00;98150.78;10251463;28;20065;-57
2022/11/29 10:20:23;;;;;;;14.55;9.20;;;;;;;1.55;100.00;98150.34;10251950;28;20054;-57
2022/11/29 10:25:26;;;;;;;22.90;15.23;;;;;;;1.66;100.00;98155.91;10251621;28;20524;-58
2022/11/29 10:30:25;;;;;;;21.90;12.85;;;;;;;1.81;100.00;98140.28;10246428;28;20062;-57
2022/11/29 10:35:24;;;;;;;26.73;13.93;;;;;;;1.85;100.00;98140.47;10254116;28;20077;-57
2022/11/29 10:40:28;;;;;;;;;;;;;;;1.79;100.00;98147.06;10255669;28;20539;-57
2022/11/29 10:45:48;;;;;;;11.77;8.48;;;;;;;1.86;100.00;98141.38;10239267;28;20037;-57
2022/11/29 10:50:50;;;;;;;14.43;9.73;;;;;;;2.03;100.00;98135.22;10243882;28;20132;-57
2022/11/29 10:55:57;;;;;;;15.65;8.20;;;;;;;2.09;100.00;98135.47;10240994;28;20050;-57
2022/11/29 11:01:05;;;;;;;12.82;7.53;;;;;;;1.97;100.00;98134.97;10249998;28;20065;-57
2022/11/29 11:06:12;;;;;;;8.80;5.00;;;;;;;1.93;99.31;98133.97;10246023;28;20554;-57
2022/11/29 11:11:13;;;;;;;7.93;5.35;;;;;;;1.80;99.45;98121.50;10250623;28;20100;-57
2022/11/29 11:16:19;;;;;;;13.98;7.55;;;;;;;1.96;99.21;98128.97;10250830;28;20467;-57
2022/11/29 11:21:20;;;;;;;14.07;7.05;;;;;;;1.93;99.03;98122.88;10249795;28;20054;-57
2022/11/29 11:26:20;;;;;;;18.27;10.90;;;;;;;2.02;99.25;98123.25;10250209;28;20057;-57
2022/11/29 11:31:33;;;;;;;18.45;8.93;;;;;;;1.84;98.27;98115.72;10250224;28;20820;-57
2022/11/29 11:36:32;;;;;;;18.90;10.80;;;;;;;1.90;98.90;98120.19;10250181;28;20062;-57
2022/11/29 11:46:52;;;;;;;8.82;5.32;;;;;;;2.09;98.10;98120.09;10250247;28;20073;-57
2022/11/29 11:51:51;;;;;;;;;;;;;;;2.08;97.67;98120.91;10250437;28;20066;-57
2022/11/29 11:56:51;;;;;;;8.93;5.13;;;;;;;2.14;97.88;98118.59;10248646;28;19917;-57
2022/11/29 12:01:50;;;;;;;9.65;6.53;;;;;;;2.31;97.64;98110.66;10245706;28;20130;-57
2022/11/29 12:06:51;;;;;;;16.60;10.65;;;;;;;2.44;96.99;98112.88;10248349;28;20053;-56
2022/11/29 12:11:59;;;;;;;9.18;5.30;;;;;;;2.51;96.72;98101.13;10247563;28;20064;-56
2022/11/29 12:17:06;;;;;;;7.60;5.40;;;;;;;2.53;97.14;98104.63;10247164;28;20069;-57
2022/11/29 12:22:12;;;;;;;9.00;4.95;;;;;;;2.48;96.34;98109.56;10246573;28;20129;-57
2022/11/29 12:27:13;;;;;;;16.30;11.00;;;;;;;2.37;96.27;98106.66;10247271;28;20066;-57
2022/11/29 12:32:37;;;;;;;10.02;6.50;;;;;;;2.36;96.63;98111.69;10249634;28;20117;-55
2022/11/29 12:37:48;;;;;;;11.23;6.40;;;;;;;2.43;95.82;98113.66;10242090;28;20069;-56
2022/11/29 12:42:56;;;;;;;10.98;7.82;;;;;;;2.50;96.35;98118.19;10238824;28;20070;-56
2022/11/29 12:48:12;;;;;;;4.03;2.70;;;;;;;2.50;95.96;98113.06;10239518;28;20487;-56
2022/11/29 12:53:17;;;;;;;5.18;3.17;;;;;;;2.58;95.53;98108.22;10243999;28;20803;-57
2022/11/29 12:58:30;;;;;;;7.18;4.75;;;;;;;2.48;95.56;98104.44;10247809;28;20066;-55
2022/11/29 13:03:53;;;;;;;10.32;5.07;;;;;;;2.55;95.66;98110.69;10247627;28;20070;-55
2022/11/29 13:09:20;;;;;;;14.20;9.07;;;;;;;2.53;95.92;98114.88;10246162;28;20504;-58
2022/11/29 13:14:48;;;;;;;14.65;9.63;;;;;;;2.35;95.35;98118.50;10249236;28;20486;-56
2022/11/29 13:19:56;;;;;;;12.77;8.98;;;;;;;2.27;96.00;98109.66;10248710;28;20523;-56
2022/11/29 13:25:11;;;;;;;15.30;10.25;;;;;;;2.30;95.71;98119.13;10248784;28;20069;-55
2022/11/29 13:30:15;;;;;;;17.15;10.18;;;;;;;2.07;96.36;98116.59;10251053;28;20074;-56
2022/11/29 13:35:13;;;;;;;15.60;9.90;;;;;;;2.08;96.19;98123.44;10249964;28;20129;-56
2022/11/29 13:40:18;;;;;;;28.10;18.27;;;;;;;1.93;96.06;98118.63;10248511;28;20043;-55
2022/11/29 13:45:25;;;;;;;24.45;15.05;;;;;;;1.94;96.85;98125.47;10253301;28;20064;-55
2022/11/29 13:50:42;;;;;;;20.83;11.82;;;;;;;1.69;97.35;98123.66;10247105;28;20453;-56
2022/11/29 13:55:58;;;;;;;19.33;11.10;;;;;;;1.59;97.53;98131.78;10251215;28;20713;-55
2022/11/29 14:01:05;;;;;;;18.95;12.05;;;;;;;1.59;97.98;98138.56;10249909;28;20160;-55
2022/11/29 14:06:09;;;;;;;42.95;26.58;;;;;;;1.59;98.34;98136.88;10245985;28;20457;-56
2022/11/29 14:11:14;;;;;;;24.95;16.15;;;;;;;1.50;98.69;98136.50;10252487;28;20058;-55
2022/11/29 14:16:36;;;;;;;28.25;16.42;;;;;;;1.55;98.48;98140.13;10245313;28;20089;-56
2022/11/29 14:21:57;;;;;;;23.40;15.13;;;;;;;1.57;98.96;98140.19;10251832;28;20061;-56
2022/11/29 14:27:05;;;;;;;22.33;14.27;;;;;;;1.43;99.86;98137.06;10252181;28;20058;-55
2022/11/29 14:32:19;;;;;;;22.00;15.65;;;;;;;1.55;99.32;98142.69;10244145;28;20072;-56
2022/11/29 14:37:46;;;;;;;23.20;15.38;;;;;;;1.61;99.50;98140.38;10252444;28;20733;-56
2022/11/29 14:42:47;;;;;;;26.05;17.35;;;;;;;1.61;99.36;98135.25;10237447;28;20927;-56
2022/11/29 14:47:49;;;;;;;17.30;11.23;;;;;;;1.56;99.25;98131.66;10219428;28;20066;-56
2022/11/29 14:52:51;;;;;;;15.27;9.63;;;;;;;1.44;99.74;98139.69;10247464;28;20054;-56
2022/11/29 14:58:07;;;;;;;23.25;14.93;;;;;;;1.32;99.91;98140.06;10216963;28;20081;-56
2022/11/29 15:03:16;;;;;;;18.20;12.15;;;;;;;1.31;100.00;98143.41;10242113;28;20117;-57
2022/11/29 15:08:53;;;;;;;20.38;13.63;;;;;;;1.33;99.79;98144.38;10245546;28;20072;-57
2022/11/29 15:14:14;;;;;;;24.90;17.38;;;;;;;1.37;100.00;98147.06;10204351;28;20070;-57
2022/11/29 15:19:49;;;;;;;32.50;20.30;;;;;;;1.41;99.90;98142.16;10214145;28;20074;-56
2022/11/29 15:24:50;;;;;;;18.58;14.02;;;;;;;1.43;99.98;98149.84;10239281;28;20070;-57
2022/11/29 15:29:49;;;;;;;27.60;16.80;;;;;;;1.27;100.00;98154.34;10250711;28;20703;-58
2022/11/29 15:34:54;;;;;;;21.20;14.38;;;;;;;1.25;100.00;98150.00;10240796;28;20637;-57
2022/11/29 15:40:20;;;;;;;20.60;13.68;;;;;;;1.35;100.00;98158.91;10249721;28;20066;-56
2022/11/29 15:45:31;;;;;;;29.13;18.45;;;;;;;1.38;100.00;98153.91;10241200;28;20074;-57
2022/11/29 15:50:32;;;;;;;35.60;22.65;;;;;;;1.37;100.00;98155.59;10251688;28;20106;-57
2022/11/29 15:55:32;;;;;;;38.30;23.65;;;;;;;1.37;100.00;98162.41;10250706;28;20058;-56
2022/11/29 16:00:32;;;;;;;27.20;16.98;;;;;;;1.32;100.00;98157.09;10243045;28;20550;-58
2022/11/29 16:05:36;;;;;;;28.10;16.98;;;;;;;1.21;100.00;98159.19;10250419;28;20689;-57
2022/11/29 16:10:48;;;;;;;31.17;19.05;;;;;;;1.17;100.00;98176.91;10248814;28;20105;-57
2022/11/29 16:15:47;;;;;;;30.52;19.40;;;;;;;1.19;100.00;98163.38;10236299;28;20550;-57
2022/11/29 16:21:06;;;;;;;39.80;24.90;;;;;;;1.28;100.00;98168.88;10248939;28;20896;-57
2022/11/29 16:26:17;;;;;;;31.88;19.92;;;;;;;1.29;100.00;98173.19;10248657;28;20065;-57
2022/11/29 16:31:18;;;;;;;31.52;20.60;;;;;;;1.38;100.00;98169.25;10257073;28;20527;-56
2022/11/29 16:36:25;;;;;;;29.10;18.75;;;;;;;1.31;100.00;98163.00;10254103;28;20057;-55
2022/11/29 16:41:31;;;;;;;25.05;16.88;;;;;;;1.26;100.00;98170.47;10257354;28;20065;-56
2022/11/29 16:46:38;;;;;;;24.55;15.25;;;;;;;1.20;100.00;98170.25;10256876;28;20062;-58
2022/11/29 16:51:49;;;;;;;27.60;18.15;;;;;;;1.17;100.00;98176.91;10256175;28;20066;-56
2022/11/29 16:56:53;;;;;;;27.23;18.98;;;;;;;1.14;100.00;98175.09;10252969;28;20844;-57
2022/11/29 17:01:52;;;;;;;34.15;22.35;;;;;;;1.04;100.00;98185.72;10249740;28;20127;-57
2022/11/29 17:06:53;;;;;;;28.58;18.92;;;;;;;1.09;100.00;98189.34;10251465;28;20065;-57
2022/11/29 17:11:54;;;;;;;23.15;15.00;;;;;;;1.08;100.00;98179.91;10248999;28;20121;-57
2022/11/29 17:16:53;;;;;;;31.85;19.92;;;;;;;1.16;100.00;98180.28;10249638;28;20065;-56
2022/11/29 17:21:52;;;;;;;;;;;;;;;1.20;100.00;98189.78;10245766;28;20503;-56
2022/11/29 17:26:51;;;;;;;23.63;14.40;;;;;;;1.04;100.00;98180.63;10248200;28;20327;-56
2022/11/29 17:31:51;;;;;;;20.42;12.15;;;;;;;1.01;100.00;98196.66;10249116;28;20030;-56
2022/11/29 17:36:50;;;;;;;55.20;27.20;;;;;;;1.07;100.00;98190.97;10248611;28;20069;-57
2022/11/29 17:41:49;;;;;;;32.90;18.85;;;;;;;1.18;100.00;98202.53;10251229;28;20080;-57
2022/11/29 17:46:48;;;;;;;31.52;18.48;;;;;;;1.26;100.00;98201.16;10247503;28;20030;-57
2022/11/29 17:51:47;;;;;;;68.97;40.55;;;;;;;1.37;100.00;98203.31;10250584;28;20420;-58
2022/11/29 17:56:46;;;;;;;72.50;51.40;;;;;;;1.45;100.00;98204.50;10252552;28;20125;-56
2022/11/29 18:01:45;;;;;;;255.27;170.95;;;;;;;1.28;100.00;98202.09;10247764;28;20074;-57
2022/11/29 18:06:48;;;;;;;59.00;35.10;;;;;;;1.32;100.00;98209.09;10234829;28;20066;-57
2022/11/29 18:11:48;;;;;;;25.67;16.55;;;;;;;1.15;100.00;98201.50;10232683;28;20058;-57
2022/11/29 18:16:47;;;;;;;56.92;34.42;;;;;;;1.18;100.00;98205.09;10221233;28;20066;-57
2022/11/29 18:21:47;;;;;;;35.70;26.00;;;;;;;1.33;100.00;98210.84;10227230;28;20073;-57
2022/11/29 18:26:46;;;;;;;32.35;21.80;;;;;;;1.46;100.00;98206.28;10220637;28;20078;-57
2022/11/29 18:31:46;;;;;;;42.35;23.58;;;;;;;1.40;100.00;98213.66;10251330;28;20475;-57
2022/11/29 18:36:46;;;;;;;;;;;;;;;1.43;100.00;98204.44;10252168;28;20527;-57
2022/11/29 18:41:47;;;;;;;25.90;14.40;;;;;;;1.56;100.00;98207.53;10251490;28;19949;-57
2022/11/29 18:46:46;;;;;;;28.80;15.82;;;;;;;1.64;100.00;98209.56;10251283;28;20062;-57
2022/11/29 18:51:46;;;;;;;28.13;16.77;;;;;;;1.60;100.00;98189.81;10250649;28;20081;-57
2022/11/29 18:56:48;;;;;;;26.50;16.27;;;;;;;1.65;100.00;98197.66;10251870;28;20076;-57
2022/11/29 19:01:47;;;;;;;19.85;12.40;;;;;;;1.63;100.00;98201.84;10249602;28;20137;-57
2022/11/29 19:06:47;;;;;;;15.00;10.10;;;;;;;1.63;100.00;98209.53;10251241;28;20085;-57
2022/11/29 19:11:48;;;;;;;17.15;10.60;;;;;;;1.56;100.00;98203.28;10250303;28;20076;-57
2022/11/29 19:16:48;;;;;;;17.08;10.48;;;;;;;1.51;100.00;98197.09;10250294;28;20492;-57
2022/11/29 19:21:47;;;;;;;64.50;32.80;;;;;;;1.66;100.00;98209.63;10249726;28;20065;-57
2022/11/29 19:26:47;;;;;;;51.60;32.78;;;;;;;1.60;100.00;98212.81;10250745;28;20065;-57
2022/11/29 19:31:46;;;;;;;42.72;27.83;;;;;;;1.60;100.00;98210.28;10249271;28;20061;-57
2022/11/29 19:36:45;;;;;;;45.55;26.90;;;;;;;1.44;100.00;98200.22;10250418;28;20062;-57
2022/11/29 19:41:46;;;;;;;16.02;10.45;;;;;;;1.50;100.00;98216.66;10249860;28;20041;-56
2022/11/29 19:46:47;;;;;;;29.10;18.85;;;;;;;1.48;100.00;98212.28;10249303;28;20077;-57
2022/11/29 19:51:46;;;;;;;20.55;14.25;;;;;;;1.56;100.00;98216.06;10248974;28;20508;-57
2022/11/29 19:56:45;;;;;;;9.38;5.35;;;;;;;1.52;100.00;98206.50;10249087;28;20050;-58
2022/11/29 20:01:44;;;;;;;15.10;8.95;;;;;;;1.40;100.00;98198.31;10248203;28;20085;-57
2022/11/29 20:06:43;;;;;;;18.90;11.25;;;;;;;1.37;100.00;98201.63;10249035;28;20431;-57
2022/11/29 20:11:43;;;;;;;13.75;8.48;;;;;;;1.37;100.00;98204.19;10249117;28;20279;-57
2022/11/29 20:16:43;;;;;;;14.93;9.15;;;;;;;1.33;100.00;98205.72;10247486;28;20510;-57
2022/11/29 20:21:46;;;;;;;31.48;18.25;;;;;;;1.31;100.00;98202.22;10248457;28;20088;-57
2022/11/29 20:26:47;;;;;;;13.90;7.72;;;;;;;1.24;100.00;98204.47;10248831;28;20073;-57
2022/11/29 20:31:46;;;;;;;22.17;14.10;;;;;;;1.24;100.00;98200.22;10247545;28;20073;-57
2022/11/29 20:37:07;;;;;;;25.45;16.80;;;;;;;1.24;100.00;98205.34;10248696;28;20076;-57
2022/11/29 20:42:24;;;;;;;20.83;11.85;;;;;;;1.20;100.00;98197.47;10262921;28;20535;-57
2022/11/29 20:47:26;;;;;;;33.88;23.05;;;;;;;1.18;100.00;98189.75;10247348;28;20066;-57
2022/11/29 20:52:31;;;;;;;21.75;12.45;;;;;;;1.21;100.00;98187.31;10248341;28;20085;-57
2022/11/29 20:57:30;;;;;;;13.15;8.10;;;;;;;1.09;100.00;98197.88;10217162;28;20086;-57
2022/11/29 21:02:29;;;;;;;24.48;15.35;;;;;;;1.09;100.00;98197.88;10247316;28;20057;-58
2022/11/29 21:07:28;;;;;;;26.10;15.68;;;;;;;1.18;100.00;98194.88;10247908;28;20077;-58
2022/11/29 21:12:28;;;;;;;178.57;110.50;;;;;;;1.19;100.00;98186.38;10250211;28;20104;-57
2022/11/29 21:17:27;;;;;;;84.35;49.38;;;;;;;1.30;100.00;98191.97;10255039;28;20535;-57
2022/11/29 21:22:41;;;;;;;103.38;67.03;;;;;;;1.41;100.00;98179.59;10254492;28;20069;-57
2022/11/29 21:27:41;;;;;;;32.60;20.45;;;;;;;1.50;100.00;98187.66;10254485;28;20069;-58
2022/11/29 21:32:40;;;;;;;90.78;52.42;;;;;;;1.58;100.00;98185.44;10255292;28;20058;-56
2022/11/29 21:37:39;;;;;;;;;;;;;;;1.53;100.00;98192.91;10256329;28;20073;-56
2022/11/29 21:42:38;;;;;;;60.58;26.15;;;;;;;1.52;100.00;98198.81;10254940;28;19953;-56
2022/11/29 21:47:37;;;;;;;19.35;9.85;;;;;;;1.40;100.00;98198.31;10254949;28;20065;-56
2022/11/29 21:52:37;;;;;;;21.55;11.60;;;;;;;1.46;100.00;98198.59;10255094;28;20104;-56
2022/11/29 21:57:36;;;;;;;18.52;9.32;;;;;;;1.56;100.00;98193.03;10254439;28;20520;-56
2022/11/29 22:02:35;;;;;;;25.83;14.10;;;;;;;1.47;100.00;98192.66;10254083;28;20081;-56
2022/11/29 22:07:35;;;;;;;23.65;12.68;;;;;;;1.49;100.00;98198.72;10254329;28;20081;-56
2022/11/29 22:12:34;;;;;;;20.60;9.93;;;;;;;1.58;100.00;98190.56;10253865;28;20032;-57
2022/11/29 22:17:33;;;;;;;112.60;45.63;;;;;;;1.62;100.00;98190.75;10254018;28;20473;-57
2022/11/29 22:22:32;;;;;;;112.22;47.15;;;;;;;1.57;100.00;98188.78;10253463;28;20121;-57
2022/11/29 22:27:31;;;;;;;39.45;18.95;;;;;;;1.56;100.00;98187.94;10253447;28;20046;-57
2022/11/29 22:32:30;;;;;;;11.60;6.78;;;;;;;1.63;100.00;98172.00;10253087;28;20022;-57
2022/11/29 22:37:29;;;;;;;61.13;25.67;;;;;;;1.67;100.00;98179.00;10253521;28;20036;-57
2022/11/29 22:42:27;;;;;;;84.88;33.75;;;;;;;1.63;100.00;98169.47;10252621;28;20034;-57
2022/11/29 22:47:26;;;;;;;149.82;62.67;;;;;;;1.58;99.88;98164.97;10252498;28;20420;-57
2022/11/29 22:52:26;;;;;;;14.77;7.63;;;;;;;1.61;100.00;98158.28;10252281;28;20026;-57
2022/11/29 22:57:24;;;;;;;;;;;;;;;1.46;100.00;98160.22;10252578;28;20463;-57
2022/11/29 23:02:23;;;;;;;41.08;20.98;;;;;;;1.42;100.00;98154.09;10251280;28;20387;-57
2022/11/29 23:07:22;;;;;;;15.90;9.95;;;;;;;1.49;99.97;98147.56;10251739;28;20518;-57
2022/11/29 23:12:21;;;;;;;17.52;10.07;;;;;;;1.55;100.00;98142.69;10251490;28;20030;-57
2022/11/29 23:17:20;;;;;;;15.18;11.20;;;;;;;1.63;100.00;98137.91;10251306;28;20066;-57
2022/11/29 23:22:19;;;;;;;6.72;4.00;;;;;;;1.67;99.79;98145.75;10248971;28;20113;-57
2022/11/29 23:27:18;;;;;;;6.35;4.05;;;;;;;1.64;99.30;98140.50;10248785;28;20528;-57
2022/11/29 23:32:17;;;;;;;56.78;28.63;;;;;;;1.61;99.14;98142.06;10248764;28;20113;-57